地図

経路データ

SID SEASON NUMBER BASIN SUBBASIN NAME ISO_TIME NATURE LAT LON WMO_WIND WMO_PRES WMO_AGENCY TRACK_TYPE DIST2LAND LANDFALL IFLAG USA_AGENCY USA_ATCF_ID USA_LAT USA_LON USA_RECORD USA_STATUS USA_WIND USA_PRES USA_SSHS USA_R34_NE USA_R34_SE USA_R34_SW USA_R34_NW USA_R50_NE USA_R50_SE USA_R50_SW USA_R50_NW USA_R64_NE USA_R64_SE USA_R64_SW USA_R64_NW USA_POCI USA_ROCI USA_RMW USA_EYE TOKYO_LAT TOKYO_LON TOKYO_GRADE TOKYO_WIND TOKYO_PRES TOKYO_R50_DIR TOKYO_R50_LONG TOKYO_R50_SHORT TOKYO_R30_DIR TOKYO_R30_LONG TOKYO_R30_SHORT TOKYO_LAND CMA_LAT CMA_LON CMA_CAT CMA_WIND CMA_PRES HKO_LAT HKO_LON HKO_CAT HKO_WIND HKO_PRES NEWDELHI_LAT NEWDELHI_LON NEWDELHI_GRADE NEWDELHI_WIND NEWDELHI_PRES NEWDELHI_CI NEWDELHI_DP NEWDELHI_POCI REUNION_LAT REUNION_LON REUNION_TYPE REUNION_WIND REUNION_PRES REUNION_TNUM REUNION_CI REUNION_RMW REUNION_R34_NE REUNION_R34_SE REUNION_R34_SW REUNION_R34_NW REUNION_R50_NE REUNION_R50_SE REUNION_R50_SW REUNION_R50_NW REUNION_R64_NE REUNION_R64_SE REUNION_R64_SW REUNION_R64_NW BOM_LAT BOM_LON BOM_TYPE BOM_WIND BOM_PRES BOM_TNUM BOM_CI BOM_RMW BOM_R34_NE BOM_R34_SE BOM_R34_SW BOM_R34_NW BOM_R50_NE BOM_R50_SE BOM_R50_SW BOM_R50_NW BOM_R64_NE BOM_R64_SE BOM_R64_SW BOM_R64_NW BOM_ROCI BOM_POCI BOM_EYE BOM_POS_METHOD BOM_PRES_METHOD NADI_LAT NADI_LON NADI_CAT NADI_WIND NADI_PRES WELLINGTON_LAT WELLINGTON_LON WELLINGTON_WIND WELLINGTON_PRES DS824_LAT DS824_LON DS824_STAGE DS824_WIND DS824_PRES TD9636_LAT TD9636_LON TD9636_STAGE TD9636_WIND TD9636_PRES TD9635_LAT TD9635_LON TD9635_WIND TD9635_PRES TD9635_ROCI NEUMANN_LAT NEUMANN_LON NEUMANN_CLASS NEUMANN_WIND NEUMANN_PRES MLC_LAT MLC_LON MLC_CLASS MLC_WIND MLC_PRES USA_GUST BOM_GUST BOM_GUST_PER REUNION_GUST REUNION_GUST_PER USA_SEAHGT USA_SEARAD_NE USA_SEARAD_SE USA_SEARAD_SW USA_SEARAD_NW STORM_SPEED STORM_DIR
1948275N11114 1948 69 WP MM NOT_NAMED 1948-09-30 12:00:00 NR 11.3000 113.500 main 459 438 __________O___ -1 11.3000 113.500 1 4 275
1948275N11114 1948 69 WP MM NOT_NAMED 1948-09-30 15:00:00 NR 11.3189 113.275 main 438 418 __________P___ -1 11.3189 113.275 1 4 275
1948275N11114 1948 69 WP MM NOT_NAMED 1948-09-30 18:00:00 NR 11.3402 113.060 main 418 393 __________P___ -1 11.3402 113.060 1 4 277
1948275N11114 1948 69 WP MM NOT_NAMED 1948-09-30 21:00:00 NR 11.3664 112.865 main 393 373 __________P___ -1 11.3664 112.865 1 4 280
1948275N11114 1948 69 WP MM NOT_NAMED 1948-10-01 00:00:00 NR 11.4000 112.700 main 373 363 __________O___ -1 11.4000 112.700 1 3 285
1948275N11114 1948 69 WP MM NOT_NAMED 1948-10-01 03:00:00 NR 11.4427 112.571 main 363 348 __________P___ -1 11.4427 112.571 1 2 293
1948275N11114 1948 69 WP MM NOT_NAMED 1948-10-01 06:00:00 NR 11.4924 112.470 main 348 338 __________P___ -1 11.4924 112.470 1 2 299
1948275N11114 1948 69 WP MM NOT_NAMED 1948-10-01 09:00:00 NR 11.5459 112.384 main 338 324 __________P___ -1 11.5459 112.384 1 2 303
1948275N11114 1948 69 WP MM NOT_NAMED 1948-10-01 12:00:00 NR 11.6000 112.300 main 324 314 __________O___ -1 11.6000 112.300 1 2 302
1948275N11114 1948 69 WP MM NOT_NAMED 1948-10-01 15:00:00 NR 11.6377 112.232 main 314 310 __________P___ -1 11.6377 112.232 1 2 299
1948275N11114 1948 69 WP MM NOT_NAMED 1948-10-01 18:00:00 NR 11.6773 112.160 main 310 300 __________P___ -1 11.6773 112.160 1 2 298
1948275N11114 1948 69 WP MM NOT_NAMED 1948-10-01 21:00:00 NR 11.7282 112.057 main 300 275 __________P___ -1 11.7282 112.057 1 3 296
1948275N11114 1948 69 WP MM NOT_NAMED 1948-10-02 00:00:00 NR 11.8000 111.900 main 275 251 __________O___ -1 11.8000 111.900 1 4 299
1948275N11114 1948 69 WP MM NOT_NAMED 1948-10-02 03:00:00 NR 11.9318 111.682 main 251 213 __________P___ -1 11.9318 111.682 1 6 300
1948275N11114 1948 69 WP MM NOT_NAMED 1948-10-02 06:00:00 NR 12.0798 111.405 main 213 179 __________P___ -1 12.0798 111.405 1 7 295
1948275N11114 1948 69 WP MM NOT_NAMED 1948-10-02 09:00:00 NR 12.2129 111.076 main 179 134 __________P___ -1 12.2129 111.076 1 7 288
1948275N11114 1948 69 WP MM NOT_NAMED 1948-10-02 12:00:00 NR 12.3000 110.700 main 134 103 __________O___ -1 12.3000 110.700 1 7 274
1948275N11114 1948 69 WP MM NOT_NAMED 1948-10-02 15:00:00 NR 12.2627 110.369 main 103 70 __________P___ -1 12.2627 110.369 1 7 260
1948275N11114 1948 69 WP MM NOT_NAMED 1948-10-02 18:00:00 NR 12.1832 109.986 main 70 31 __________P___ -1 12.1832 109.986 1 9 260
1948275N11114 1948 69 WP MM NOT_NAMED 1948-10-02 21:00:00 NR 12.1122 109.509 main 31 0 __________P___ -1 12.1122 109.509 1 11 266
1948275N11114 1948 69 WP MM NOT_NAMED 1948-10-03 00:00:00 NR 12.1000 108.900 main 0 0 __________O___ -1 12.1000 108.900 1 14 272
1948275N11114 1948 69 WP MM NOT_NAMED 1948-10-03 03:00:00 NR 12.1666 108.107 main 0 0 __________P___ -1 12.1666 108.107 1 17 277
1948275N11114 1948 69 WP MM NOT_NAMED 1948-10-03 06:00:00 NR 12.3013 107.184 main 0 0 __________P___ -1 12.3013 107.184 1 19 280
1948275N11114 1948 69 WP MM NOT_NAMED 1948-10-03 09:00:00 NR 12.5102 106.194 main 0 0 __________P___ -1 12.5102 106.194 1 20 284
1948275N11114 1948 69 WP MM NOT_NAMED 1948-10-03 12:00:00 NR 12.8000 105.200 main 0 0 __________O___ -1 12.8000 105.200 1 21 290
1948275N11114 1948 69 WP MM NOT_NAMED 1948-10-03 15:00:00 NR 13.2164 104.202 main 0 0 __________P___ -1 13.2164 104.202 1 21 295
1948275N11114 1948 69 WP MM NOT_NAMED 1948-10-03 18:00:00 NR 13.7014 103.224 main 0 0 __________P___ -1 13.7014 103.224 1 21 298
1948275N11114 1948 69 WP MM NOT_NAMED 1948-10-03 21:00:00 NR 14.1855 102.333 main 0 0 __________P___ -1 14.1855 102.333 1 18 300
1948275N11114 1948 69 WP MM NOT_NAMED 1948-10-04 00:00:00 NR 14.6000 101.600 main 0 0 __________O___ -1 14.6000 101.600 1 13 299
1948275N11114 1948 69 WP MM NOT_NAMED 1948-10-04 03:00:00 NR 14.8395 101.120 main 0 0 __________P___ -1 14.8395 101.120 1 9 298
1948275N11114 1948 69 WP MM NOT_NAMED 1948-10-04 06:00:00 NR 15.0072 100.797 main 0 0 __________P___ -1 15.0072 100.797 1 6 299
1948275N11114 1948 69 WP MM NOT_NAMED 1948-10-04 09:00:00 NR 15.1464 100.551 main 0 0 __________P___ -1 15.1464 100.551 1 6 301
1948275N11114 1948 69 WP MM NOT_NAMED 1948-10-04 12:00:00 NR 15.3000 100.300 main 0 0 __________O___ -1 15.3000 100.300 1 7 303
1948275N11114 1948 69 NI BB NOT_NAMED 1948-10-04 15:00:00 NR 15.5011 99.9780 main 0 0 __________P___ -1 15.5011 99.9780 1 8 303
1948275N11114 1948 69 NI BB NOT_NAMED 1948-10-04 18:00:00 NR 15.7445 99.5896 main 0 0 __________P___ -1 15.7445 99.5896 1 9 303
1948275N11114 1948 69 NI BB NOT_NAMED 1948-10-04 21:00:00 NR 16.0156 99.1564 main 0 0 __________P___ -1 16.0156 99.1564 1 10 303
1948275N11114 1948 69 NI BB NOT_NAMED 1948-10-05 00:00:00 NR 16.3000 98.7000 main 0 __________O___ -1 16.3000 98.7000 1 10 303

デジタル台風データ・検索

IBTrACS Databaseについて

本データベースは、米国NOAAが公開する1842年以降の世界の熱帯低気圧のベストトラックデータアーカイブInternational Best Track Archive for Climate Stewardship (IBTrACS)を、ウェブで閲覧しやすい形式に変換したものです。

最終更新日:2021-10-21